sensor_id;sensor_type;location;lat;lon;timestamp;pressure;altitude;pressure_sealevel;temperature;humidity
6837;BME280;3456;42.136;24.736;2023-05-07T00:01:33;143356.09;;;13.53;100.00
6837;BME280;3456;42.136;24.736;2023-05-07T00:04:02;145508.81;;;13.45;100.00
6837;BME280;3456;42.136;24.736;2023-05-07T00:06:32;147657.66;;;14.15;100.00
6837;BME280;3456;42.136;24.736;2023-05-07T00:09:01;148609.31;;;14.26;100.00
6837;BME280;3456;42.136;24.736;2023-05-07T00:11:33;150244.66;;;14.03;100.00
6837;BME280;3456;42.136;24.736;2023-05-07T00:14:01;150336.00;;;14.39;100.00
6837;BME280;3456;42.136;24.736;2023-05-07T00:16:30;150348.66;;;14.44;100.00
6837;BME280;3456;42.136;24.736;2023-05-07T00:18:59;150330.91;;;14.37;100.00
6837;BME280;3456;42.136;24.736;2023-05-07T00:21:28;150234.53;;;13.99;100.00
6837;BME280;3456;42.136;24.736;2023-05-07T00:23:56;150346.13;;;14.43;100.00
6837;BME280;3456;42.136;24.736;2023-05-07T00:26:25;150239.59;;;14.01;100.00
6837;BME280;3456;42.136;24.736;2023-05-07T00:28:56;150330.91;;;14.37;100.00
6837;BME280;3456;42.136;24.736;2023-05-07T00:31:25;150386.69;;;14.59;100.00
6837;BME280;3456;42.136;24.736;2023-05-07T00:33:54;150381.59;;;14.57;100.00
6837;BME280;3456;42.136;24.736;2023-05-07T00:36:23;150374.00;;;14.54;100.00
6837;BME280;3456;42.136;24.736;2023-05-07T00:38:51;150310.59;;;14.29;100.00
6837;BME280;3456;42.136;24.736;2023-05-07T00:41:20;150338.50;;;14.40;100.00
6837;BME280;3456;42.136;24.736;2023-05-07T00:43:49;150396.81;;;14.63;100.00
6837;BME280;3456;42.136;24.736;2023-05-07T00:46:21;150289.03;;;14.20;100.00
6837;BME280;3456;42.136;24.736;2023-05-07T00:48:50;150305.56;;;14.27;100.00
6837;BME280;3456;42.136;24.736;2023-05-07T00:51:20;150282.69;;;14.18;100.00
6837;BME280;3456;42.136;24.736;2023-05-07T00:53:49;150338.50;;;14.40;100.00
6837;BME280;3456;42.136;24.736;2023-05-07T00:56:18;150346.13;;;14.43;100.00
6837;BME280;3456;42.136;24.736;2023-05-07T00:58:47;150339.81;;;14.40;100.00
6837;BME280;3456;42.136;24.736;2023-05-07T01:01:16;150308.09;;;14.28;100.00
6837;BME280;3456;42.136;24.736;2023-05-07T01:03:48;150346.13;;;14.43;100.00
6837;BME280;3456;42.136;24.736;2023-05-07T01:06:17;150381.59;;;14.57;100.00
6837;BME280;3456;42.136;24.736;2023-05-07T01:08:47;150361.34;;;14.49;100.00
6837;BME280;3456;42.136;24.736;2023-05-07T01:11:18;150120.50;;;13.53;100.00
6837;BME280;3456;42.136;24.736;2023-05-07T01:13:48;150313.19;;;14.30;100.00
6837;BME280;3456;42.136;24.736;2023-05-07T01:16:17;150237.06;;;14.00;100.00
6837;BME280;3456;42.136;24.736;2023-05-07T01:18:49;150368.94;;;14.52;100.00
6837;BME280;3456;42.136;24.736;2023-05-07T01:21:18;150338.50;;;14.40;100.00
6837;BME280;3456;42.136;24.736;2023-05-07T01:23:56;150333.44;;;14.38;100.00
6837;BME280;3456;42.136;24.736;2023-05-07T01:26:25;150166.09;;;13.71;100.00
6837;BME280;3456;42.136;24.736;2023-05-07T01:28:54;150181.31;;;13.77;100.00
6837;BME280;3456;42.136;24.736;2023-05-07T01:31:24;150368.94;;;14.52;100.00
6837;BME280;3456;42.136;24.736;2023-05-07T01:33:54;150264.91;;;14.11;100.00
6837;BME280;3456;42.136;24.736;2023-05-07T01:36:24;150309.38;;;14.28;100.00
6837;BME280;3456;42.136;24.736;2023-05-07T01:38:57;150308.09;;;14.28;100.00
6837;BME280;3456;42.136;24.736;2023-05-07T01:41:26;150090.09;;;13.41;100.00
6837;BME280;3456;42.136;24.736;2023-05-07T01:43:57;150209.16;;;13.88;100.00
6837;BME280;3456;42.136;24.736;2023-05-07T01:46:26;150310.59;;;14.29;100.00
6837;BME280;3456;42.136;24.736;2023-05-07T01:48:55;150297.97;;;14.24;100.00
6837;BME280;3456;42.136;24.736;2023-05-07T01:51:24;150343.59;;;14.42;100.00
6837;BME280;3456;42.136;24.736;2023-05-07T01:53:56;150318.22;;;14.32;100.00
6837;BME280;3456;42.136;24.736;2023-05-07T01:56:25;150258.59;;;14.08;100.00
6837;BME280;3456;42.136;24.736;2023-05-07T01:58:54;150304.28;;;14.26;100.00
6837;BME280;3456;42.136;24.736;2023-05-07T02:01:23;150300.47;;;14.25;100.00
6837;BME280;3456;42.136;24.736;2023-05-07T02:03:52;150166.09;;;13.71;100.00
6837;BME280;3456;42.136;24.736;2023-05-07T02:06:20;150285.22;;;14.19;100.00
6837;BME280;3456;42.136;24.736;2023-05-07T02:08:49;150376.56;;;14.55;100.00
6837;BME280;3456;42.136;24.736;2023-05-07T02:11:20;150381.59;;;14.57;100.00
6837;BME280;3456;42.136;24.736;2023-05-07T02:13:50;150271.28;;;14.13;100.00
6837;BME280;3456;42.136;24.736;2023-05-07T02:16:19;150323.31;;;14.34;100.00
6837;BME280;3456;42.136;24.736;2023-05-07T02:18:48;150368.94;;;14.52;100.00
6837;BME280;3456;42.136;24.736;2023-05-07T02:21:17;150254.78;;;14.07;100.00
6837;BME280;3456;42.136;24.736;2023-05-07T02:23:46;150285.22;;;14.19;100.00
6837;BME280;3456;42.136;24.736;2023-05-07T02:26:15;150275.09;;;14.15;100.00
6837;BME280;3456;42.136;24.736;2023-05-07T02:28:46;150272.53;;;14.14;100.00
6837;BME280;3456;42.136;24.736;2023-05-07T02:31:15;150247.19;;;14.04;100.00
6837;BME280;3456;42.136;24.736;2023-05-07T02:33:46;150239.59;;;14.01;100.00
6837;BME280;3456;42.136;24.736;2023-05-07T02:36:15;150138.22;;;13.60;100.00
6837;BME280;3456;42.136;24.736;2023-05-07T02:38:44;150262.41;;;14.10;100.00
6837;BME280;3456;42.136;24.736;2023-05-07T02:41:13;150206.66;;;13.88;100.00
6837;BME280;3456;42.136;24.736;2023-05-07T02:43:41;150064.75;;;13.31;100.00
6837;BME280;3456;42.136;24.736;2023-05-07T02:46:13;150270.00;;;14.13;100.00
6837;BME280;3456;42.136;24.736;2023-05-07T02:48:42;150257.31;;;14.08;100.00
6837;BME280;3456;42.136;24.736;2023-05-07T02:51:10;150285.22;;;14.19;100.00
6837;BME280;3456;42.136;24.736;2023-05-07T02:53:39;150034.34;;;13.19;100.00
6837;BME280;3456;42.136;24.736;2023-05-07T02:56:08;150049.56;;;13.25;100.00
6837;BME280;3456;42.136;24.736;2023-05-07T02:58:36;150039.38;;;13.21;100.00
6837;BME280;3456;42.136;24.736;2023-05-07T03:01:05;150231.97;;;13.98;100.00
6837;BME280;3456;42.136;24.736;2023-05-07T03:03:36;150140.72;;;13.61;100.00
6837;BME280;3456;42.136;24.736;2023-05-07T03:06:05;150273.81;;;14.14;100.00
6837;BME280;3456;42.136;24.736;2023-05-07T03:08:34;150308.09;;;14.28;100.00
6837;BME280;3456;42.136;24.736;2023-05-07T03:11:03;150268.72;;;14.12;100.00
6837;BME280;3456;42.136;24.736;2023-05-07T03:13:32;150270.00;;;14.13;100.00
6837;BME280;3456;42.136;24.736;2023-05-07T03:16:01;150257.31;;;14.08;100.00
6837;BME280;3456;42.136;24.736;2023-05-07T03:18:30;150286.50;;;14.19;100.00
6837;BME280;3456;42.136;24.736;2023-05-07T03:21:01;150096.94;;;14.07;100.00
6837;BME280;3456;42.136;24.736;2023-05-07T03:23:30;149831.06;;;14.14;100.00
6837;BME280;3456;42.136;24.736;2023-05-07T03:25:58;149743.66;;;14.08;100.00
6837;BME280;3456;42.136;24.736;2023-05-07T03:28:27;149667.75;;;14.15;100.00
6837;BME280;3456;42.136;24.736;2023-05-07T03:30:56;149042.38;;;14.11;100.00
6837;BME280;3456;42.136;24.736;2023-05-07T03:33:25;149385.69;;;14.05;100.00
6837;BME280;3456;42.136;24.736;2023-05-07T03:35:54;149133.66;;;14.26;100.00
6837;BME280;3456;42.136;24.736;2023-05-07T03:38:25;149276.53;;;14.10;100.00
6837;BME280;3456;42.136;24.736;2023-05-07T03:40:54;150353.72;;;14.46;100.00
6837;BME280;3456;42.136;24.736;2023-05-07T03:43:22;150394.28;;;14.62;100.00
6837;BME280;3456;42.136;24.736;2023-05-07T03:45:51;150412.03;;;14.69;100.00
6837;BME280;3456;42.136;24.736;2023-05-07T03:48:20;150432.34;;;14.77;100.00
6837;BME280;3456;42.136;24.736;2023-05-07T03:50:49;150559.16;;;15.27;100.00
6837;BME280;3456;42.136;24.736;2023-05-07T03:53:17;150576.97;;;15.34;100.00
6837;BME280;3456;42.136;24.736;2023-05-07T03:55:49;150469.09;;;14.91;100.00
6837;BME280;3456;42.136;24.736;2023-05-07T03:58:19;150608.69;;;15.46;100.00
6837;BME280;3456;42.136;24.736;2023-05-07T04:00:48;150518.56;;;15.11;100.00
6837;BME280;3456;42.136;24.736;2023-05-07T04:03:17;150665.81;;;15.69;100.00
6837;BME280;3456;42.136;24.736;2023-05-07T04:05:46;150777.50;;;16.13;100.00
6837;BME280;3456;42.136;24.736;2023-05-07T04:08:14;150769.88;;;16.10;100.00
6837;BME280;3456;42.136;24.736;2023-05-07T04:10:43;150807.97;;;16.25;100.00
6837;BME280;3456;42.136;24.736;2023-05-07T04:13:14;150736.88;;;15.97;100.00
6837;BME280;3456;42.136;24.736;2023-05-07T04:15:43;151044.28;;;17.18;100.00
6837;BME280;3456;42.136;24.736;2023-05-07T04:18:12;151096.34;;;17.39;100.00
6837;BME280;3456;42.136;24.736;2023-05-07T04:20:41;151172.66;;;17.69;100.00
6837;BME280;3456;42.136;24.736;2023-05-07T04:23:10;151254.00;;;18.01;100.00
6837;BME280;3456;42.136;24.736;2023-05-07T04:25:38;151255.28;;;18.02;100.00
6837;BME280;3456;42.136;24.736;2023-05-07T04:28:07;151303.59;;;18.21;100.00
6837;BME280;3456;42.136;24.736;2023-05-07T04:30:39;151318.84;;;18.27;100.00
6837;BME280;3456;42.136;24.736;2023-05-07T04:33:08;150952.78;;;16.82;100.00
6837;BME280;3456;42.136;24.736;2023-05-07T04:35:37;151245.09;;;17.98;100.00
6837;BME280;3456;42.136;24.736;2023-05-07T04:38:06;151067.09;;;17.27;100.00
6837;BME280;3456;42.136;24.736;2023-05-07T04:40:35;151138.34;;;17.55;100.00
6837;BME280;3456;42.136;24.736;2023-05-07T04:43:04;151184.06;;;17.74;100.00
6837;BME280;3456;42.136;24.736;2023-05-07T04:45:34;151049.31;;;17.20;100.00
6837;BME280;3456;42.136;24.736;2023-05-07T04:48:09;151050.59;;;17.21;100.00
6837;BME280;3456;42.136;24.736;2023-05-07T04:50:40;151241.28;;;17.96;100.00
6837;BME280;3456;42.136;24.736;2023-05-07T04:53:09;151199.31;;;17.80;100.00
6837;BME280;3456;42.136;24.736;2023-05-07T04:55:38;151194.25;;;17.78;100.00
6837;BME280;3456;42.136;24.736;2023-05-07T04:58:07;151181.53;;;17.73;100.00
6837;BME280;3456;42.136;24.736;2023-05-07T05:00:36;151115.47;;;17.46;100.00
6837;BME280;3456;42.136;24.736;2023-05-07T05:03:05;151130.72;;;17.52;100.00
6837;BME280;3456;42.136;24.736;2023-05-07T05:05:37;151147.22;;;17.59;100.00
6837;BME280;3456;42.136;24.736;2023-05-07T05:08:06;151171.38;;;17.69;100.00
6837;BME280;3456;42.136;24.736;2023-05-07T05:10:34;151261.63;;;18.04;100.00
6837;BME280;3456;42.136;24.736;2023-05-07T05:13:03;151217.16;;;17.87;100.00
6837;BME280;3456;42.136;24.736;2023-05-07T05:15:32;151242.56;;;17.97;100.00
6837;BME280;3456;42.136;24.736;2023-05-07T05:18:01;151199.31;;;17.80;100.00
6837;BME280;3456;42.136;24.736;2023-05-07T05:20:30;151110.38;;;17.44;100.00
6837;BME280;3456;42.136;24.736;2023-05-07T05:23:01;151238.75;;;17.95;100.00
6837;BME280;3456;42.136;24.736;2023-05-07T05:25:30;151284.53;;;18.13;100.00
6837;BME280;3456;42.136;24.736;2023-05-07T05:27:58;151273.06;;;18.09;100.00
6837;BME280;3456;42.136;24.736;2023-05-07T05:30:27;151262.91;;;18.05;100.00
6837;BME280;3456;42.136;24.736;2023-05-07T05:32:56;151265.44;;;18.06;100.00
6837;BME280;3456;42.136;24.736;2023-05-07T05:35:25;151318.84;;;18.27;100.00
6837;BME280;3456;42.136;24.736;2023-05-07T05:37:54;151339.16;;;18.35;100.00
6837;BME280;3456;42.136;24.736;2023-05-07T05:40:25;151321.38;;;18.28;100.00
6837;BME280;3456;42.136;24.736;2023-05-07T05:42:54;151321.38;;;18.28;100.00
6837;BME280;3456;42.136;24.736;2023-05-07T05:45:23;151385.00;;;18.53;100.00
6837;BME280;3456;42.136;24.736;2023-05-07T05:47:52;151252.72;;;18.01;100.00
6837;BME280;3456;42.136;24.736;2023-05-07T05:50:21;151480.41;;;18.90;100.00
6837;BME280;3456;42.136;24.736;2023-05-07T05:52:50;151589.88;;;19.33;100.00
6837;BME280;3456;42.136;24.736;2023-05-07T05:55:19;151686.59;;;19.72;100.00
6837;BME280;3456;42.136;24.736;2023-05-07T05:57:51;151580.97;;;19.30;100.00
6837;BME280;3456;42.136;24.736;2023-05-07T06:00:20;151667.50;;;19.64;100.00
6837;BME280;3456;42.136;24.736;2023-05-07T06:02:49;151657.31;;;19.60;100.00
6837;BME280;3456;42.136;24.736;2023-05-07T06:05:18;151746.47;;;19.95;100.00
6837;BME280;3456;42.136;24.736;2023-05-07T06:07:47;151710.81;;;19.81;100.00
6837;BME280;3456;42.136;24.736;2023-05-07T06:10:16;151727.38;;;19.88;100.00
6837;BME280;3456;42.136;24.736;2023-05-07T06:12:45;151830.50;;;20.28;100.00
6837;BME280;3456;42.136;24.736;2023-05-07T06:15:16;151775.75;;;20.07;100.00
6837;BME280;3456;42.136;24.736;2023-05-07T06:17:45;151867.47;;;20.43;100.00
6837;BME280;3456;42.136;24.736;2023-05-07T06:20:15;151858.53;;;20.39;100.00
6837;BME280;3456;42.136;24.736;2023-05-07T06:22:49;151766.81;;;20.03;100.00
6837;BME280;3456;42.136;24.736;2023-05-07T06:25:19;151881.47;;;20.48;100.00
6837;BME280;3456;42.136;24.736;2023-05-07T06:27:48;151975.75;;;20.85;99.56
6837;BME280;3456;42.136;24.736;2023-05-07T06:30:19;151992.31;;;20.92;99.02
6837;BME280;3456;42.136;24.736;2023-05-07T06:32:48;151849.63;;;20.36;100.00
6837;BME280;3456;42.136;24.736;2023-05-07T06:35:17;151794.88;;;20.14;100.00
6837;BME280;3456;42.136;24.736;2023-05-07T06:37:46;151932.41;;;20.68;100.00
6837;BME280;3456;42.136;24.736;2023-05-07T06:40:15;152026.72;;;21.05;98.16
6837;BME280;3456;42.136;24.736;2023-05-07T06:42:44;152049.66;;;21.14;99.80
6837;BME280;3456;42.136;24.736;2023-05-07T06:45:13;151950.28;;;20.75;96.44
6837;BME280;3456;42.136;24.736;2023-05-07T06:47:44;151924.75;;;20.65;100.00
6837;BME280;3456;42.136;24.736;2023-05-07T06:50:13;152006.38;;;20.97;99.69
6837;BME280;3456;42.136;24.736;2023-05-07T06:52:42;152108.31;;;21.38;97.82
6837;BME280;3456;42.136;24.736;2023-05-07T06:55:11;152239.63;;;21.89;95.14
6837;BME280;3456;42.136;24.736;2023-05-07T06:57:40;152230.75;;;21.86;93.87
6837;BME280;3456;42.136;24.736;2023-05-07T07:00:09;152261.28;;;21.98;94.27
6837;BME280;3456;42.136;24.736;2023-05-07T07:02:38;152344.22;;;22.30;91.83
6837;BME280;3456;42.136;24.736;2023-05-07T07:05:10;152381.19;;;22.45;88.98
6837;BME280;3456;42.136;24.736;2023-05-07T07:07:39;152372.25;;;22.41;90.06
6837;BME280;3456;42.136;24.736;2023-05-07T07:10:08;152309.78;;;22.17;88.77
6837;BME280;3456;42.136;24.736;2023-05-07T07:12:37;152187.31;;;21.69;90.90
6837;BME280;3456;42.136;24.736;2023-05-07T07:15:07;152169.50;;;21.62;93.20
6837;BME280;3456;42.136;24.736;2023-05-07T07:17:36;152247.28;;;21.92;93.35
6837;BME280;3456;42.136;24.736;2023-05-07T07:20:06;152297.00;;;22.12;93.02
6837;BME280;3456;42.136;24.736;2023-05-07T07:22:39;152321.25;;;22.21;90.25
6837;BME280;3456;42.136;24.736;2023-05-07T07:25:08;152192.44;;;21.71;92.52
6837;BME280;3456;42.136;24.736;2023-05-07T07:27:37;152281.72;;;22.06;91.13
6837;BME280;3456;42.136;24.736;2023-05-07T07:30:07;152210.31;;;21.78;91.04
6837;BME280;3456;42.136;24.736;2023-05-07T07:32:36;152200.13;;;21.74;90.28
6837;BME280;3456;42.136;24.736;2023-05-07T07:35:06;152215.44;;;21.80;90.48
6837;BME280;3456;42.136;24.736;2023-05-07T07:37:38;152325.09;;;22.23;90.42
6837;BME280;3456;42.136;24.736;2023-05-07T07:40:08;152340.38;;;22.29;90.53
6837;BME280;3456;42.136;24.736;2023-05-07T07:42:39;152330.16;;;22.25;90.51
6837;BME280;3456;42.136;24.736;2023-05-07T07:45:13;152506.25;;;22.94;88.82
6837;BME280;3456;42.136;24.736;2023-05-07T07:47:42;152530.47;;;23.03;87.19
6837;BME280;3456;42.136;24.736;2023-05-07T07:50:11;152595.59;;;23.29;85.04
6837;BME280;3456;42.136;24.736;2023-05-07T07:52:46;152616.03;;;23.37;84.52
6837;BME280;3456;42.136;24.736;2023-05-07T07:55:14;152466.69;;;22.78;85.78
6837;BME280;3456;42.136;24.736;2023-05-07T07:57:46;152544.53;;;23.09;84.05
6837;BME280;3456;42.136;24.736;2023-05-07T08:00:16;152325.09;;;22.23;83.52
6837;BME280;3456;42.136;24.736;2023-05-07T08:02:45;152460.31;;;22.76;84.49
6837;BME280;3456;42.136;24.736;2023-05-07T08:05:14;152299.53;;;22.13;89.75
6837;BME280;3456;42.136;24.736;2023-05-07T08:07:46;152256.22;;;21.96;92.26
6837;BME280;3456;42.136;24.736;2023-05-07T08:10:17;152360.78;;;22.37;89.13
6837;BME280;3456;42.136;24.736;2023-05-07T08:12:47;152388.84;;;22.48;86.75
6837;BME280;3456;42.136;24.736;2023-05-07T08:15:18;152266.41;;;22.00;88.35
6837;BME280;3456;42.136;24.736;2023-05-07T08:17:46;152272.75;;;22.02;89.36
6837;BME280;3456;42.136;24.736;2023-05-07T08:20:15;152467.97;;;22.79;89.07
6837;BME280;3456;42.136;24.736;2023-05-07T08:22:47;152467.97;;;22.79;85.02
6837;BME280;3456;42.136;24.736;2023-05-07T08:25:16;152429.69;;;22.64;77.93
6837;BME280;3456;42.136;24.736;2023-05-07T08:27:44;152692.63;;;23.67;78.27
6837;BME280;3456;42.136;24.736;2023-05-07T08:30:14;152705.38;;;23.72;76.46
6837;BME280;3456;42.136;24.736;2023-05-07T08:32:43;152539.41;;;23.07;80.81
6837;BME280;3456;42.136;24.736;2023-05-07T08:35:12;152404.19;;;22.54;81.43
6837;BME280;3456;42.136;24.736;2023-05-07T08:37:41;152610.91;;;23.35;76.53
6837;BME280;3456;42.136;24.736;2023-05-07T08:40:12;152682.38;;;23.63;74.67
6837;BME280;3456;42.136;24.736;2023-05-07T08:42:41;152672.19;;;23.59;74.89
6837;BME280;3456;42.136;24.736;2023-05-07T08:45:12;152585.41;;;23.25;75.59
6837;BME280;3456;42.136;24.736;2023-05-07T08:47:43;152531.75;;;23.04;81.68
6837;BME280;3456;42.136;24.736;2023-05-07T08:50:13;152662.00;;;23.55;77.48
6837;BME280;3456;42.136;24.736;2023-05-07T08:52:42;152774.38;;;23.99;74.38
6837;BME280;3456;42.136;24.736;2023-05-07T08:55:14;152805.03;;;24.11;73.01
6837;BME280;3456;42.136;24.736;2023-05-07T08:57:43;152544.53;;;23.09;73.18
6837;BME280;3456;42.136;24.736;2023-05-07T09:00:13;152716.88;;;23.77;76.29
6837;BME280;3456;42.136;24.736;2023-05-07T09:02:42;152635.19;;;23.45;72.26
6837;BME280;3456;42.136;24.736;2023-05-07T09:05:11;152541.94;;;23.08;71.45
6837;BME280;3456;42.136;24.736;2023-05-07T09:07:40;152582.88;;;23.24;74.80
6837;BME280;3456;42.136;24.736;2023-05-07T09:10:09;152641.56;;;23.47;72.19
6837;BME280;3456;42.136;24.736;2023-05-07T09:12:40;152579.00;;;23.23;70.16
6837;BME280;3456;42.136;24.736;2023-05-07T09:15:10;152559.84;;;23.15;70.42
6837;BME280;3456;42.136;24.736;2023-05-07T09:17:39;152313.59;;;22.18;72.41
6837;BME280;3456;42.136;24.736;2023-05-07T09:20:09;152369.72;;;22.40;70.03
6837;BME280;3456;42.136;24.736;2023-05-07T09:22:38;152452.66;;;22.73;65.86
6837;BME280;3456;42.136;24.736;2023-05-07T09:25:08;152434.81;;;22.66;66.12
6837;BME280;3456;42.136;24.736;2023-05-07T09:27:41;152445.00;;;22.70;65.44
6837;BME280;3456;42.136;24.736;2023-05-07T09:30:11;152330.16;;;22.25;64.91
6837;BME280;3456;42.136;24.736;2023-05-07T09:32:40;152450.13;;;22.72;61.21
6837;BME280;3456;42.136;24.736;2023-05-07T09:35:14;152450.13;;;22.72;60.05
6837;BME280;3456;42.136;24.736;2023-05-07T09:37:44;152383.72;;;22.46;62.60
6837;BME280;3456;42.136;24.736;2023-05-07T09:40:20;152385.03;;;22.46;61.95
6837;BME280;3456;42.136;24.736;2023-05-07T09:42:53;152345.47;;;22.31;63.26
6837;BME280;3456;42.136;24.736;2023-05-07T09:45:22;152437.34;;;22.67;63.04
6837;BME280;3456;42.136;24.736;2023-05-07T09:47:54;152549.59;;;23.11;59.58
6837;BME280;3456;42.136;24.736;2023-05-07T09:50:27;152480.75;;;22.84;60.30
6837;BME280;3456;42.136;24.736;2023-05-07T09:53:05;152432.25;;;22.65;63.91
6837;BME280;3456;42.136;24.736;2023-05-07T09:55:35;152438.66;;;22.67;63.82
6837;BME280;3456;42.136;24.736;2023-05-07T09:58:07;152473.09;;;22.81;62.66
6837;BME280;3456;42.136;24.736;2023-05-07T10:00:37;152516.44;;;22.98;62.40
6837;BME280;3456;42.136;24.736;2023-05-07T10:03:09;152508.78;;;22.95;63.28
6837;BME280;3456;42.136;24.736;2023-05-07T10:05:38;152470.50;;;22.80;64.54
6837;BME280;3456;42.136;24.736;2023-05-07T10:08:08;152474.34;;;22.81;64.28
6837;BME280;3456;42.136;24.736;2023-05-07T10:10:38;152526.63;;;23.02;64.06
6837;BME280;3456;42.136;24.736;2023-05-07T10:13:10;152568.75;;;23.18;63.64
6837;BME280;3456;42.136;24.736;2023-05-07T10:15:39;152483.28;;;22.85;62.49
6837;BME280;3456;42.136;24.736;2023-05-07T10:18:10;152365.88;;;22.39;63.70
6837;BME280;3456;42.136;24.736;2023-05-07T10:20:42;152410.56;;;22.56;62.98
6837;BME280;3456;42.136;24.736;2023-05-07T10:23:14;152443.72;;;22.69;63.35
6837;BME280;3456;42.136;24.736;2023-05-07T10:25:45;152460.31;;;22.76;62.13
6837;BME280;3456;42.136;24.736;2023-05-07T10:28:18;152506.25;;;22.94;62.41
6837;BME280;3456;42.136;24.736;2023-05-07T10:30:57;152506.25;;;22.94;64.21
6837;BME280;3456;42.136;24.736;2023-05-07T10:33:29;152376.06;;;22.43;63.67
6837;BME280;3456;42.136;24.736;2023-05-07T10:36:05;152547.06;;;23.10;63.31
6837;BME280;3456;42.136;24.736;2023-05-07T10:38:37;152550.91;;;23.11;62.82
6837;BME280;3456;42.136;24.736;2023-05-07T10:41:06;152478.16;;;22.83;64.68
6837;BME280;3456;42.136;24.736;2023-05-07T10:43:42;152483.28;;;22.85;63.19
6837;BME280;3456;42.136;24.736;2023-05-07T10:46:15;152410.56;;;22.56;61.00
6837;BME280;3456;42.136;24.736;2023-05-07T10:49:11;152442.47;;;22.69;60.74
6837;BME280;3456;42.136;24.736;2023-05-07T10:51:40;152424.59;;;22.62;60.00
6837;BME280;3456;42.136;24.736;2023-05-07T10:54:26;152461.63;;;22.76;60.00
6837;BME280;3456;42.136;24.736;2023-05-07T10:56:54;152396.56;;;22.51;59.17
6837;BME280;3456;42.136;24.736;2023-05-07T10:59:36;152433.53;;;22.65;58.41
6837;BME280;3456;42.136;24.736;2023-05-07T11:02:11;152501.13;;;22.92;58.30
6837;BME280;3456;42.136;24.736;2023-05-07T11:04:40;152490.94;;;22.88;58.51
6837;BME280;3456;42.136;24.736;2023-05-07T11:07:37;152496.00;;;22.90;58.99
6837;BME280;3456;42.136;24.736;2023-05-07T11:10:07;152461.63;;;22.76;61.01
6837;BME280;3456;42.136;24.736;2023-05-07T11:12:52;152439.91;;;22.68;59.81
6837;BME280;3456;42.136;24.736;2023-05-07T11:15:41;152457.78;;;22.75;60.88
6837;BME280;3456;42.136;24.736;2023-05-07T11:18:11;152525.41;;;23.01;59.59
6837;BME280;3456;42.136;24.736;2023-05-07T11:20:52;152581.59;;;23.24;58.33
6837;BME280;3456;42.136;24.736;2023-05-07T11:26:19;152511.31;;;22.96;56.31
6837;BME280;3456;42.136;24.736;2023-05-07T11:28:49;152381.19;;;22.45;56.09
6837;BME280;3456;42.136;24.736;2023-05-07T11:31:24;152496.00;;;22.90;56.35
6837;BME280;3456;42.136;24.736;2023-05-07T11:33:54;152434.81;;;22.66;55.58
6837;BME280;3456;42.136;24.736;2023-05-07T11:36:23;152529.22;;;23.03;53.50
6837;BME280;3456;42.136;24.736;2023-05-07T11:38:53;152446.31;;;22.70;56.62
6837;BME280;3456;42.136;24.736;2023-05-07T11:41:21;152570.03;;;23.19;54.18
6837;BME280;3456;42.136;24.736;2023-05-07T11:43:57;152559.84;;;23.15;53.65
6837;BME280;3456;42.136;24.736;2023-05-07T11:46:29;152547.06;;;23.10;52.69
6837;BME280;3456;42.136;24.736;2023-05-07T11:48:58;152529.22;;;23.03;53.13
6837;BME280;3456;42.136;24.736;2023-05-07T11:51:28;152516.44;;;22.98;54.18
6837;BME280;3456;42.136;24.736;2023-05-07T11:53:58;152396.56;;;22.51;56.34
6837;BME280;3456;42.136;24.736;2023-05-07T11:56:27;152502.44;;;22.92;56.46
6837;BME280;3456;42.136;24.736;2023-05-07T11:58:56;152439.91;;;22.68;58.42
6837;BME280;3456;42.136;24.736;2023-05-07T12:01:24;152424.59;;;22.62;58.63
6837;BME280;3456;42.136;24.736;2023-05-07T12:03:56;152363.34;;;22.38;58.50
6837;BME280;3456;42.136;24.736;2023-05-07T12:06:24;152200.13;;;21.74;58.65
6837;BME280;3456;42.136;24.736;2023-05-07T12:08:53;152149.06;;;21.54;60.19
6837;BME280;3456;42.136;24.736;2023-05-07T12:11:24;152388.84;;;22.48;60.10
6837;BME280;3456;42.136;24.736;2023-05-07T12:13:54;152325.09;;;22.23;59.45
6837;BME280;3456;42.136;24.736;2023-05-07T12:16:23;152424.59;;;22.62;60.30
6837;BME280;3456;42.136;24.736;2023-05-07T12:18:55;152419.50;;;22.60;60.61
6837;BME280;3456;42.136;24.736;2023-05-07T12:21:24;152314.84;;;22.19;58.68
6837;BME280;3456;42.136;24.736;2023-05-07T12:23:53;152446.31;;;22.70;57.10
6837;BME280;3456;42.136;24.736;2023-05-07T12:26:22;152494.78;;;22.89;57.17
6837;BME280;3456;42.136;24.736;2023-05-07T12:28:52;152483.28;;;22.85;58.42
6837;BME280;3456;42.136;24.736;2023-05-07T12:31:20;152437.34;;;22.67;58.00
6837;BME280;3456;42.136;24.736;2023-05-07T12:33:49;152467.97;;;22.79;56.99
6837;BME280;3456;42.136;24.736;2023-05-07T12:36:21;152445.00;;;22.70;57.30
6837;BME280;3456;42.136;24.736;2023-05-07T12:38:50;152549.59;;;23.11;55.68
6837;BME280;3456;42.136;24.736;2023-05-07T12:41:19;152422.03;;;22.61;55.84
6837;BME280;3456;42.136;24.736;2023-05-07T12:43:56;152503.66;;;22.93;56.46
6837;BME280;3456;42.136;24.736;2023-05-07T12:46:25;152548.38;;;23.10;56.28
6837;BME280;3456;42.136;24.736;2023-05-07T12:48:54;152541.94;;;23.08;56.77
6837;BME280;3456;42.136;24.736;2023-05-07T12:51:25;152490.94;;;22.88;56.68
6837;BME280;3456;42.136;24.736;2023-05-07T12:53:56;152455.19;;;22.74;56.25
6837;BME280;3456;42.136;24.736;2023-05-07T12:56:25;152497.31;;;22.90;56.19
6837;BME280;3456;42.136;24.736;2023-05-07T12:58:57;152541.94;;;23.08;56.31
6837;BME280;3456;42.136;24.736;2023-05-07T13:01:29;152562.38;;;23.16;57.40
6837;BME280;3456;42.136;24.736;2023-05-07T13:04:01;152520.28;;;22.99;57.75
6837;BME280;3456;42.136;24.736;2023-05-07T13:06:34;152490.94;;;22.88;57.05
6837;BME280;3456;42.136;24.736;2023-05-07T13:09:06;152480.75;;;22.84;58.40
6837;BME280;3456;42.136;24.736;2023-05-07T13:11:34;152485.81;;;22.86;56.27
6837;BME280;3456;42.136;24.736;2023-05-07T13:14:03;152432.25;;;22.65;57.61